sensor_id;sensor_type;location;lat;lon;timestamp;P1;durP1;ratioP1;P2;durP2;ratioP2
36303;SDS011;22335;49.800;8.596;2022-07-05T00:01:41;4.88;;;3.97;;
36303;SDS011;22335;49.800;8.596;2022-07-05T00:15:15;4.15;;;3.95;;
36303;SDS011;22335;49.800;8.596;2022-07-05T00:28:49;4.88;;;4.10;;
36303;SDS011;22335;49.800;8.596;2022-07-05T00:35:34;5.00;;;4.70;;
36303;SDS011;22335;49.800;8.596;2022-07-05T00:49:08;4.38;;;3.97;;
36303;SDS011;22335;49.800;8.596;2022-07-05T00:55:54;4.30;;;4.00;;
36303;SDS011;22335;49.800;8.596;2022-07-05T01:02:39;4.72;;;4.32;;
36303;SDS011;22335;49.800;8.596;2022-07-05T01:16:13;4.88;;;4.57;;
36303;SDS011;22335;49.800;8.596;2022-07-05T01:23:02;4.65;;;4.35;;
36303;SDS011;22335;49.800;8.596;2022-07-05T01:29:48;5.07;;;4.68;;
36303;SDS011;22335;49.800;8.596;2022-07-05T01:36:34;4.88;;;4.60;;
36303;SDS011;22335;49.800;8.596;2022-07-05T01:43:24;5.07;;;4.57;;
36303;SDS011;22335;49.800;8.596;2022-07-05T01:50:09;4.57;;;4.30;;
36303;SDS011;22335;49.800;8.596;2022-07-05T01:56:59;4.85;;;4.50;;
36303;SDS011;22335;49.800;8.596;2022-07-05T02:03:49;4.30;;;4.10;;
36303;SDS011;22335;49.800;8.596;2022-07-05T02:10:39;4.93;;;4.63;;
36303;SDS011;22335;49.800;8.596;2022-07-05T02:17:25;5.05;;;4.57;;
36303;SDS011;22335;49.800;8.596;2022-07-05T02:24:14;4.65;;;4.35;;
36303;SDS011;22335;49.800;8.596;2022-07-05T02:31:08;5.10;;;4.70;;
36303;SDS011;22335;49.800;8.596;2022-07-05T02:37:55;4.93;;;4.32;;
36303;SDS011;22335;49.800;8.596;2022-07-05T03:05:20;4.80;;;4.50;;
36303;SDS011;22335;49.800;8.596;2022-07-05T03:12:12;5.65;;;5.25;;
36303;SDS011;22335;49.800;8.596;2022-07-05T03:19:00;6.03;;;5.22;;
36303;SDS011;22335;49.800;8.596;2022-07-05T03:25:48;5.07;;;4.53;;
36303;SDS011;22335;49.800;8.596;2022-07-05T03:32:35;5.07;;;4.47;;
36303;SDS011;22335;49.800;8.596;2022-07-05T03:39:22;5.32;;;5.03;;
36303;SDS011;22335;49.800;8.596;2022-07-05T03:46:10;5.15;;;4.72;;
36303;SDS011;22335;49.800;8.596;2022-07-05T03:52:57;5.10;;;4.70;;
36303;SDS011;22335;49.800;8.596;2022-07-05T03:59:43;5.43;;;4.90;;
36303;SDS011;22335;49.800;8.596;2022-07-05T04:06:33;5.00;;;4.70;;
36303;SDS011;22335;49.800;8.596;2022-07-05T04:13:19;4.63;;;4.43;;
36303;SDS011;22335;49.800;8.596;2022-07-05T04:20:08;4.85;;;4.45;;
36303;SDS011;22335;49.800;8.596;2022-07-05T04:26:59;4.80;;;4.40;;
36303;SDS011;22335;49.800;8.596;2022-07-05T04:33:45;5.68;;;4.97;;
36303;SDS011;22335;49.800;8.596;2022-07-05T04:40:35;4.95;;;4.55;;
36303;SDS011;22335;49.800;8.596;2022-07-05T04:47:25;4.78;;;4.38;;
36303;SDS011;22335;49.800;8.596;2022-07-05T04:54:11;4.70;;;4.40;;
36303;SDS011;22335;49.800;8.596;2022-07-05T05:00:57;5.38;;;5.03;;
36303;SDS011;22335;49.800;8.596;2022-07-05T05:07:45;5.28;;;4.72;;
36303;SDS011;22335;49.800;8.596;2022-07-05T05:14:31;5.00;;;4.60;;
36303;SDS011;22335;49.800;8.596;2022-07-05T05:21:17;5.38;;;4.97;;
36303;SDS011;22335;49.800;8.596;2022-07-05T05:28:05;5.38;;;4.82;;
36303;SDS011;22335;49.800;8.596;2022-07-05T05:34:50;5.03;;;4.72;;
36303;SDS011;22335;49.800;8.596;2022-07-05T05:41:36;6.40;;;4.68;;
36303;SDS011;22335;49.800;8.596;2022-07-05T05:48:25;4.63;;;4.32;;
36303;SDS011;22335;49.800;8.596;2022-07-05T05:55:11;4.82;;;4.38;;
36303;SDS011;22335;49.800;8.596;2022-07-05T06:08:45;5.00;;;4.60;;
36303;SDS011;22335;49.800;8.596;2022-07-05T06:15:30;4.90;;;4.40;;
36303;SDS011;22335;49.800;8.596;2022-07-05T06:22:17;4.82;;;4.43;;
36303;SDS011;22335;49.800;8.596;2022-07-05T06:29:05;4.57;;;4.28;;
36303;SDS011;22335;49.800;8.596;2022-07-05T06:35:50;5.63;;;4.90;;
36303;SDS011;22335;49.800;8.596;2022-07-05T06:42:36;5.72;;;4.97;;
36303;SDS011;22335;49.800;8.596;2022-07-05T06:49:25;5.15;;;4.65;;
36303;SDS011;22335;49.800;8.596;2022-07-05T06:56:11;4.55;;;4.15;;
36303;SDS011;22335;49.800;8.596;2022-07-05T07:10:04;5.28;;;4.78;;
36303;SDS011;22335;49.800;8.596;2022-07-05T07:16:51;4.60;;;4.20;;
36303;SDS011;22335;49.800;8.596;2022-07-05T07:23:36;6.68;;;4.25;;
36303;SDS011;22335;49.800;8.596;2022-07-05T07:30:25;4.90;;;4.40;;
36303;SDS011;22335;49.800;8.596;2022-07-05T07:37:13;5.18;;;4.65;;
36303;SDS011;22335;49.800;8.596;2022-07-05T07:44:00;4.85;;;4.35;;
36303;SDS011;22335;49.800;8.596;2022-07-05T07:50:48;4.75;;;4.40;;
36303;SDS011;22335;49.800;8.596;2022-07-05T07:57:34;6.30;;;5.53;;
36303;SDS011;22335;49.800;8.596;2022-07-05T08:04:19;4.50;;;4.10;;
36303;SDS011;22335;49.800;8.596;2022-07-05T08:11:08;5.82;;;4.38;;
36303;SDS011;22335;49.800;8.596;2022-07-05T08:17:55;5.60;;;4.32;;
36303;SDS011;22335;49.800;8.596;2022-07-05T08:24:53;4.32;;;4.03;;
36303;SDS011;22335;49.800;8.596;2022-07-05T08:31:42;4.43;;;4.13;;
36303;SDS011;22335;49.800;8.596;2022-07-05T08:38:30;7.75;;;4.43;;
36303;SDS011;22335;49.800;8.596;2022-07-05T08:45:17;4.72;;;4.32;;
36303;SDS011;22335;49.800;8.596;2022-07-05T08:52:06;5.30;;;4.20;;
36303;SDS011;22335;49.800;8.596;2022-07-05T08:58:56;4.72;;;4.18;;
36303;SDS011;22335;49.800;8.596;2022-07-05T09:05:42;4.50;;;3.70;;
36303;SDS011;22335;49.800;8.596;2022-07-05T09:12:32;3.70;;;3.40;;
36303;SDS011;22335;49.800;8.596;2022-07-05T09:19:18;4.03;;;3.75;;
36303;SDS011;22335;49.800;8.596;2022-07-05T09:26:04;4.43;;;4.03;;
36303;SDS011;22335;49.800;8.596;2022-07-05T09:32:56;3.97;;;3.67;;
36303;SDS011;22335;49.800;8.596;2022-07-05T09:39:45;4.25;;;3.85;;
36303;SDS011;22335;49.800;8.596;2022-07-05T09:46:32;3.28;;;3.08;;
36303;SDS011;22335;49.800;8.596;2022-07-05T09:53:21;3.50;;;3.30;;
36303;SDS011;22335;49.800;8.596;2022-07-05T10:00:07;4.75;;;3.72;;
36303;SDS011;22335;49.800;8.596;2022-07-05T10:06:57;4.03;;;3.70;;
36303;SDS011;22335;49.800;8.596;2022-07-05T10:13:45;4.45;;;3.75;;
36303;SDS011;22335;49.800;8.596;2022-07-05T10:20:33;4.32;;;3.42;;
36303;SDS011;22335;49.800;8.596;2022-07-05T10:27:25;3.85;;;3.45;;
36303;SDS011;22335;49.800;8.596;2022-07-05T10:34:15;4.57;;;4.18;;
36303;SDS011;22335;49.800;8.596;2022-07-05T10:41:23;4.70;;;3.45;;
36303;SDS011;22335;49.800;8.596;2022-07-05T10:48:19;3.60;;;3.30;;
36303;SDS011;22335;49.800;8.596;2022-07-05T10:55:24;3.25;;;3.05;;
36303;SDS011;22335;49.800;8.596;2022-07-05T11:02:12;4.05;;;3.70;;
36303;SDS011;22335;49.800;8.596;2022-07-05T11:09:14;3.50;;;3.20;;
36303;SDS011;22335;49.800;8.596;2022-07-05T11:23:09;3.53;;;3.33;;
36303;SDS011;22335;49.800;8.596;2022-07-05T11:29:56;3.58;;;3.28;;
36303;SDS011;22335;49.800;8.596;2022-07-05T11:36:44;6.18;;;3.63;;
36303;SDS011;22335;49.800;8.596;2022-07-05T11:44:35;3.97;;;3.70;;
36303;SDS011;22335;49.800;8.596;2022-07-05T11:51:34;3.95;;;3.65;;
36303;SDS011;22335;49.800;8.596;2022-07-05T11:58:23;3.83;;;3.53;;
36303;SDS011;22335;49.800;8.596;2022-07-05T12:05:15;4.15;;;3.85;;
36303;SDS011;22335;49.800;8.596;2022-07-05T12:12:02;3.88;;;3.35;;
36303;SDS011;22335;49.800;8.596;2022-07-05T12:19:04;3.95;;;3.65;;
36303;SDS011;22335;49.800;8.596;2022-07-05T12:25:50;4.40;;;3.40;;
36303;SDS011;22335;49.800;8.596;2022-07-05T12:39:46;4.63;;;3.70;;
36303;SDS011;22335;49.800;8.596;2022-07-05T12:46:35;3.38;;;3.17;;
36303;SDS011;22335;49.800;8.596;2022-07-05T12:53:24;4.32;;;3.78;;
36303;SDS011;22335;49.800;8.596;2022-07-05T13:00:26;3.47;;;3.25;;
36303;SDS011;22335;49.800;8.596;2022-07-05T13:07:14;4.82;;;4.45;;
36303;SDS011;22335;49.800;8.596;2022-07-05T13:14:19;5.07;;;3.22;;
36303;SDS011;22335;49.800;8.596;2022-07-05T13:21:07;6.13;;;3.92;;
36303;SDS011;22335;49.800;8.596;2022-07-05T13:27:57;3.65;;;3.35;;
36303;SDS011;22335;49.800;8.596;2022-07-05T13:34:42;4.70;;;3.05;;
36303;SDS011;22335;49.800;8.596;2022-07-05T13:41:32;3.38;;;3.13;;
36303;SDS011;22335;49.800;8.596;2022-07-05T13:48:18;3.97;;;3.55;;
36303;SDS011;22335;49.800;8.596;2022-07-05T13:55:03;3.47;;;3.28;;
36303;SDS011;22335;49.800;8.596;2022-07-05T14:01:53;4.07;;;3.30;;
36303;SDS011;22335;49.800;8.596;2022-07-05T14:08:39;5.82;;;3.47;;
36303;SDS011;22335;49.800;8.596;2022-07-05T14:15:25;3.85;;;3.50;;
36303;SDS011;22335;49.800;8.596;2022-07-05T14:22:14;3.35;;;3.08;;
36303;SDS011;22335;49.800;8.596;2022-07-05T14:28:59;2.97;;;2.78;;
36303;SDS011;22335;49.800;8.596;2022-07-05T14:35:45;3.85;;;3.22;;
36303;SDS011;22335;49.800;8.596;2022-07-05T14:42:33;4.05;;;3.85;;
36303;SDS011;22335;49.800;8.596;2022-07-05T14:49:19;3.88;;;3.10;;
36303;SDS011;22335;49.800;8.596;2022-07-05T14:56:04;3.50;;;3.30;;
36303;SDS011;22335;49.800;8.596;2022-07-05T15:02:52;3.10;;;2.97;;
36303;SDS011;22335;49.800;8.596;2022-07-05T15:09:40;4.10;;;3.70;;
36303;SDS011;22335;49.800;8.596;2022-07-05T15:16:26;3.50;;;3.20;;
36303;SDS011;22335;49.800;8.596;2022-07-05T15:23:14;2.85;;;2.65;;
36303;SDS011;22335;49.800;8.596;2022-07-05T15:30:00;3.30;;;3.10;;
36303;SDS011;22335;49.800;8.596;2022-07-05T15:36:46;3.55;;;3.25;;
36303;SDS011;22335;49.800;8.596;2022-07-05T15:43:35;3.13;;;2.92;;
36303;SDS011;22335;49.800;8.596;2022-07-05T15:50:20;6.75;;;3.42;;
36303;SDS011;22335;49.800;8.596;2022-07-05T15:57:06;3.40;;;3.13;;
36303;SDS011;22335;49.800;8.596;2022-07-05T16:03:54;3.70;;;3.47;;
36303;SDS011;22335;49.800;8.596;2022-07-05T16:10:41;3.83;;;3.53;;
36303;SDS011;22335;49.800;8.596;2022-07-05T16:17:27;3.83;;;3.40;;
36303;SDS011;22335;49.800;8.596;2022-07-05T16:24:15;4.22;;;3.58;;
36303;SDS011;22335;49.800;8.596;2022-07-05T16:31:01;4.15;;;3.50;;
36303;SDS011;22335;49.800;8.596;2022-07-05T16:37:47;3.85;;;3.55;;
36303;SDS011;22335;49.800;8.596;2022-07-05T16:44:35;3.85;;;3.47;;
36303;SDS011;22335;49.800;8.596;2022-07-05T16:51:21;4.63;;;3.30;;
36303;SDS011;22335;49.800;8.596;2022-07-05T16:58:07;3.67;;;3.47;;
36303;SDS011;22335;49.800;8.596;2022-07-05T17:04:55;4.65;;;4.28;;
36303;SDS011;22335;49.800;8.596;2022-07-05T17:11:41;4.43;;;3.90;;
36303;SDS011;22335;49.800;8.596;2022-07-05T17:18:26;4.60;;;4.20;;
36303;SDS011;22335;49.800;8.596;2022-07-05T17:25:14;4.30;;;4.00;;
36303;SDS011;22335;49.800;8.596;2022-07-05T17:32:00;4.38;;;3.97;;
36303;SDS011;22335;49.800;8.596;2022-07-05T17:38:47;4.60;;;4.20;;
36303;SDS011;22335;49.800;8.596;2022-07-05T17:45:44;4.40;;;4.03;;
36303;SDS011;22335;49.800;8.596;2022-07-05T17:52:29;5.03;;;4.50;;
36303;SDS011;22335;49.800;8.596;2022-07-05T17:59:15;4.90;;;4.50;;
36303;SDS011;22335;49.800;8.596;2022-07-05T18:06:03;5.15;;;4.68;;
36303;SDS011;22335;49.800;8.596;2022-07-05T18:12:49;5.03;;;4.63;;
36303;SDS011;22335;49.800;8.596;2022-07-05T18:19:34;5.10;;;4.60;;
36303;SDS011;22335;49.800;8.596;2022-07-05T18:26:22;5.07;;;4.78;;
36303;SDS011;22335;49.800;8.596;2022-07-05T18:33:28;4.43;;;4.20;;
36303;SDS011;22335;49.800;8.596;2022-07-05T18:40:14;7.50;;;4.65;;
36303;SDS011;22335;49.800;8.596;2022-07-05T18:47:02;5.10;;;4.53;;
36303;SDS011;22335;49.800;8.596;2022-07-05T18:53:49;5.03;;;4.63;;
36303;SDS011;22335;49.800;8.596;2022-07-05T19:00:35;4.68;;;4.28;;
36303;SDS011;22335;49.800;8.596;2022-07-05T19:07:23;4.80;;;4.50;;
36303;SDS011;22335;49.800;8.596;2022-07-05T19:14:21;4.70;;;4.40;;
36303;SDS011;22335;49.800;8.596;2022-07-05T19:21:06;4.93;;;4.53;;
36303;SDS011;22335;49.800;8.596;2022-07-05T19:27:56;4.57;;;4.28;;
36303;SDS011;22335;49.800;8.596;2022-07-05T19:34:48;7.23;;;4.30;;
36303;SDS011;22335;49.800;8.596;2022-07-05T19:41:34;5.55;;;4.65;;
36303;SDS011;22335;49.800;8.596;2022-07-05T19:48:22;6.35;;;4.70;;
36303;SDS011;22335;49.800;8.596;2022-07-05T19:55:08;6.40;;;4.60;;
36303;SDS011;22335;49.800;8.596;2022-07-05T20:01:54;6.22;;;4.35;;
36303;SDS011;22335;49.800;8.596;2022-07-05T20:08:42;5.72;;;4.03;;
36303;SDS011;22335;49.800;8.596;2022-07-05T20:15:28;4.70;;;4.15;;
36303;SDS011;22335;49.800;8.596;2022-07-05T20:22:13;4.78;;;4.40;;
36303;SDS011;22335;49.800;8.596;2022-07-05T20:29:02;4.53;;;4.20;;
36303;SDS011;22335;49.800;8.596;2022-07-05T20:35:48;4.85;;;4.35;;
36303;SDS011;22335;49.800;8.596;2022-07-05T20:42:33;4.60;;;4.30;;
36303;SDS011;22335;49.800;8.596;2022-07-05T20:49:22;4.90;;;4.32;;
36303;SDS011;22335;49.800;8.596;2022-07-05T20:56:08;4.85;;;4.45;;
36303;SDS011;22335;49.800;8.596;2022-07-05T21:02:54;4.07;;;3.85;;
36303;SDS011;22335;49.800;8.596;2022-07-05T21:09:42;4.32;;;4.13;;
36303;SDS011;22335;49.800;8.596;2022-07-05T21:16:28;4.70;;;4.30;;
36303;SDS011;22335;49.800;8.596;2022-07-05T21:23:15;5.13;;;4.55;;
36303;SDS011;22335;49.800;8.596;2022-07-05T21:30:03;5.22;;;4.50;;
36303;SDS011;22335;49.800;8.596;2022-07-05T21:36:51;5.07;;;4.22;;
36303;SDS011;22335;49.800;8.596;2022-07-05T21:43:36;4.55;;;4.22;;
36303;SDS011;22335;49.800;8.596;2022-07-05T21:50:25;4.65;;;4.35;;
36303;SDS011;22335;49.800;8.596;2022-07-05T21:57:10;5.78;;;4.55;;
36303;SDS011;22335;49.800;8.596;2022-07-05T22:03:56;4.45;;;4.18;;
36303;SDS011;22335;49.800;8.596;2022-07-05T22:10:57;4.53;;;4.20;;
36303;SDS011;22335;49.800;8.596;2022-07-05T22:17:55;4.80;;;4.50;;
36303;SDS011;22335;49.800;8.596;2022-07-05T22:24:41;4.75;;;4.35;;
36303;SDS011;22335;49.800;8.596;2022-07-05T22:31:29;5.07;;;4.40;;
36303;SDS011;22335;49.800;8.596;2022-07-05T22:38:14;4.93;;;4.43;;
36303;SDS011;22335;49.800;8.596;2022-07-05T22:45:00;5.43;;;5.03;;
36303;SDS011;22335;49.800;8.596;2022-07-05T22:51:49;5.35;;;4.85;;
36303;SDS011;22335;49.800;8.596;2022-07-05T22:58:34;5.20;;;4.75;;
36303;SDS011;22335;49.800;8.596;2022-07-05T23:12:08;5.10;;;4.70;;
36303;SDS011;22335;49.800;8.596;2022-07-05T23:18:53;5.03;;;4.72;;
36303;SDS011;22335;49.800;8.596;2022-07-05T23:25:39;6.22;;;5.10;;
36303;SDS011;22335;49.800;8.596;2022-07-05T23:32:27;5.35;;;4.85;;
36303;SDS011;22335;49.800;8.596;2022-07-05T23:39:13;5.35;;;4.95;;
36303;SDS011;22335;49.800;8.596;2022-07-05T23:45:59;7.03;;;5.22;;
36303;SDS011;22335;49.800;8.596;2022-07-05T23:52:47;4.93;;;4.63;;
36303;SDS011;22335;49.800;8.596;2022-07-05T23:59:33;5.60;;;5.10;;
